WMKM/MKZ METAR and TAF weather

Enter ICAO airport designator
Station Type Date Time Source
WMKM METAR 2020/01/26 19:00 UTC NOAA

WMKM 261900Z 03004KT 320V120 9999 FEW017CB 27/22 Q1010


Station Type Date Time Source
WMKM Decoded METAR 2020/01/26 19:00 UTC NOAA

Malacca, Malaysia (WMKM) 02-16N 102-15E 9M
Jan 26, 2020 - 02:00 PM EST / 2020.01.26 1900 UTC
Wind: from the NNE (030 degrees) at 5 MPH (4 KT) (direction variable):0
Visibility: greater than 7 mile(s):0
Sky conditions: mostly clear
Weather: Cumulonimbus clouds observed
Temperature: 80 F (27 C)
Dew Point: 71 F (22 C)
Relative Humidity: 74%
Pressure (altimeter): 29.83 in. Hg (1010 hPa)
ob: WMKM 261900Z 03004KT 320V120 9999 FEW017CB 27/22 Q1010
cycle: 19

Station Type Date Time Source
WMKM TAF 2020/01/26 18:00 UTC NOAA

TAF WMKM 261700Z 2618/2718 03006KT 9999 FEW030 PROB30
TEMPO 2622/2702 4000 TSRA FEW010 FEW017CB SCT018

Example: see airport list